Time;durP1;ratioP1;P1;durP2;ratioP2;P2;SDS_P1;SDS_P2;PMS_P1;PMS_P2;Temp;Humidity;BMP_temperature;BMP_pressure;BME280_temperature;BME280_humidity;BME280_pressure;Samples;Min_cycle;Max_cycle;Signal;HPM_P1;HPM_P2
2023/04/09 00:01:56;;;;;;;52.83;31.40;;;;;;;;;;5053256;28;20463;-87
2023/04/09 00:04:22;;;;;;;49.83;29.70;;;;;;;;;;5068587;28;20434;-80
2023/04/09 00:06:48;;;;;;;48.03;28.77;;;;;;;;;;5068667;28;20908;-79
2023/04/09 00:09:20;;;;;;;49.73;29.67;;;;;;;;;;5068610;28;20460;-86
2023/04/09 00:11:49;;;;;;;53.37;32.47;;;;;;;;;;5052861;28;20420;-87
2023/04/09 00:14:15;;;;;;;50.30;30.50;;;;;;;;;;5068513;28;20840;-79
2023/04/09 00:16:50;;;;;;;48.57;29.73;;;;;;;;;;5050084;28;20440;-85
2023/04/09 00:19:16;;;;;;;47.70;27.50;;;;;;;;;;5047317;28;20310;-87
2023/04/09 00:21:42;;;;;;;42.07;26.30;;;;;;;;;;5034946;28;20957;-79
2023/04/09 00:24:08;;;;;;;50.30;28.50;;;;;;;;;;5052961;28;20393;-80
2023/04/09 00:26:34;;;;;;;45.77;27.30;;;;;;;;;;5052634;28;20717;-87
2023/04/09 00:29:00;;;;;;;47.83;26.30;;;;;;;;;;5052527;28;20444;-87
2023/04/09 00:31:26;;;;;;;45.13;26.57;;;;;;;;;;5052823;28;20406;-80
2023/04/09 00:33:52;;;;;;;43.03;26.50;;;;;;;;;;5052818;28;20407;-87
2023/04/09 00:36:18;;;;;;;46.23;26.83;;;;;;;;;;5053276;28;20887;-80
2023/04/09 00:38:45;;;;;;;41.57;26.90;;;;;;;;;;5053131;28;20411;-81
2023/04/09 00:41:11;;;;;;;45.47;26.20;;;;;;;;;;5052467;28;20471;-87
2023/04/09 00:43:37;;;;;;;45.80;27.00;;;;;;;;;;5052884;28;20738;-79
2023/04/09 00:46:04;;;;;;;50.77;28.10;;;;;;;;;;5051958;28;20414;-87
2023/04/09 00:48:30;;;;;;;40.73;24.40;;;;;;;;;;5052806;28;20252;-80
2023/04/09 00:50:56;;;;;;;47.27;24.33;;;;;;;;;;5052885;28;20443;-87
2023/04/09 00:53:21;;;;;;;44.20;26.17;;;;;;;;;;5035071;28;20424;-87
2023/04/09 00:55:50;;;;;;;41.80;26.07;;;;;;;;;;5053302;28;20421;-86
2023/04/09 00:58:16;;;;;;;44.30;25.70;;;;;;;;;;5039009;28;20406;-85
2023/04/09 01:00:42;;;;;;;44.10;24.97;;;;;;;;;;5052817;28;20815;-81
2023/04/09 01:03:08;;;;;;;44.20;26.37;;;;;;;;;;5055677;28;20750;-85
2023/04/09 01:05:48;;;;;;;47.07;25.43;;;;;;;;;;5056978;28;20402;-84
2023/04/09 01:08:43;;;;;;;45.10;24.93;;;;;;;;;;5056988;28;20446;-88
2023/04/09 01:11:15;;;;;;;43.73;25.20;;;;;;;;;;5053378;28;20416;-80
2023/04/09 01:13:44;;;;;;;44.90;24.23;;;;;;;;;;5043318;28;20434;-80
2023/04/09 01:16:12;;;;;;;45.23;25.40;;;;;;;;;;5038481;28;20417;-89
2023/04/09 01:19:04;;;;;;;48.37;26.70;;;;;;;;;;5056552;28;20420;-88
2023/04/09 01:21:31;;;;;;;51.80;28.23;;;;;;;;;;5018591;28;20479;-87
2023/04/09 01:24:13;;;;;;;55.37;30.20;;;;;;;;;;5056301;28;20412;-88
2023/04/09 01:26:54;;;;;;;52.37;29.67;;;;;;;;;;5056065;28;20421;-86
2023/04/09 01:29:22;;;;;;;48.53;27.53;;;;;;;;;;5055960;28;20970;-80
2023/04/09 01:31:52;;;;;;;47.97;28.77;;;;;;;;;;5056105;28;20411;-84
2023/04/09 01:34:19;;;;;;;54.73;29.23;;;;;;;;;;5038071;28;20417;-84
2023/04/09 01:36:51;;;;;;;49.57;29.20;;;;;;;;;;5056116;28;20764;-81
2023/04/09 01:39:17;;;;;;;57.63;31.57;;;;;;;;;;5054864;28;20418;-80
2023/04/09 01:41:44;;;;;;;49.90;31.20;;;;;;;;;;5054452;28;20830;-87
2023/04/09 01:44:11;;;;;;;49.47;29.77;;;;;;;;;;5056117;28;20410;-80
2023/04/09 01:46:39;;;;;;;53.03;29.10;;;;;;;;;;5056033;28;20473;-80
2023/04/09 01:49:06;;;;;;;60.93;30.23;;;;;;;;;;5056002;28;20429;-88
2023/04/09 01:51:39;;;;;;;62.13;32.10;;;;;;;;;;5054729;28;20957;-89
2023/04/09 01:54:15;;;;;;;59.00;30.57;;;;;;;;;;5056798;28;20807;-88
2023/04/09 01:56:45;;;;;;;52.90;30.33;;;;;;;;;;5055711;28;20457;-82
2023/04/09 01:59:12;;;;;;;53.97;27.27;;;;;;;;;;5056295;28;20414;-91
2023/04/09 02:02:01;;;;;;;57.70;31.90;;;;;;;;;;5055058;28;20475;-89
2023/04/09 02:04:33;;;;;;;55.50;31.27;;;;;;;;;;5056362;28;20396;-82
2023/04/09 02:07:14;;;;;;;52.80;30.00;;;;;;;;;;5056942;28;20414;-81
2023/04/09 02:09:41;;;;;;;54.77;29.30;;;;;;;;;;5057078;28;20447;-93
2023/04/09 02:12:12;;;;;;;55.47;29.57;;;;;;;;;;5039053;28;20412;-94
2023/04/09 02:14:38;;;;;;;53.37;28.90;;;;;;;;;;5055001;28;20415;-95
2023/04/09 02:17:04;;;;;;;51.17;27.67;;;;;;;;;;5056153;28;20426;-93
2023/04/09 02:19:44;;;;;;;54.40;29.43;;;;;;;;;;5056533;28;20447;-93
2023/04/09 02:22:11;;;;;;;61.67;29.17;;;;;;;;;;5056673;28;20566;-94
2023/04/09 02:24:37;;;;;;;62.27;29.73;;;;;;;;;;5057029;28;20410;-81
2023/04/09 02:27:10;;;;;;;58.67;28.00;;;;;;;;;;5046790;28;20417;-93
2023/04/09 02:29:36;;;;;;;61.17;31.00;;;;;;;;;;5055858;28;20604;-90
2023/04/09 02:32:06;;;;;;;54.60;31.40;;;;;;;;;;5056432;28;20449;-91
2023/04/09 02:34:32;;;;;;;54.20;29.30;;;;;;;;;;5056156;28;20409;-84
2023/04/09 02:36:58;;;;;;;53.27;29.30;;;;;;;;;;5055813;28;20469;-84
2023/04/09 02:39:24;;;;;;;60.93;31.50;;;;;;;;;;5054424;28;20413;-81
2023/04/09 02:41:52;;;;;;;50.13;29.93;;;;;;;;;;5053906;28;20478;-87
2023/04/09 02:44:18;;;;;;;60.90;31.93;;;;;;;;;;5054315;28;20412;-92
2023/04/09 02:47:04;;;;;;;60.63;31.70;;;;;;;;;;5036579;28;20784;-86
2023/04/09 02:49:41;;;;;;;52.60;29.77;;;;;;;;;;5053106;28;20422;-88
2023/04/09 02:52:09;;;;;;;59.27;30.63;;;;;;;;;;5054000;28;20426;-84
2023/04/09 02:54:35;;;;;;;55.27;31.33;;;;;;;;;;5055574;28;20451;-92
2023/04/09 02:57:04;;;;;;;55.23;29.90;;;;;;;;;;5055467;28;20483;-90
2023/04/09 02:59:39;;;;;;;52.60;30.50;;;;;;;;;;5054657;28;20409;-91
2023/04/09 03:02:06;;;;;;;47.70;27.27;;;;;;;;;;5054732;28;20562;-88
2023/04/09 03:04:34;;;;;;;56.03;30.37;;;;;;;;;;5055456;28;20761;-89
2023/04/09 03:07:23;;;;;;;49.00;29.33;;;;;;;;;;5055090;28;20551;-88
2023/04/09 03:09:49;;;;;;;49.33;26.33;;;;;;;;;;5054359;28;20885;-80
2023/04/09 03:12:16;;;;;;;55.37;28.83;;;;;;;;;;5053585;28;20417;-89
2023/04/09 03:14:43;;;;;;;52.77;29.63;;;;;;;;;;5055191;28;20413;-89
2023/04/09 03:17:17;;;;;;;40.03;26.80;;;;;;;;;;5054488;28;20450;-81
2023/04/09 03:19:46;;;;;;;47.13;26.40;;;;;;;;;;5054377;28;20822;-80
2023/04/09 03:22:12;;;;;;;46.33;27.67;;;;;;;;;;5054190;28;20473;-80
2023/04/09 03:24:38;;;;;;;41.53;26.57;;;;;;;;;;5052474;28;20481;-82
2023/04/09 03:27:07;;;;;;;56.27;31.07;;;;;;;;;;5014089;28;20546;-87
2023/04/09 03:29:33;;;;;;;48.53;28.40;;;;;;;;;;5054052;28;20452;-81
2023/04/09 03:32:02;;;;;;;51.10;29.33;;;;;;;;;;5054230;28;20414;-89
2023/04/09 03:34:35;;;;;;;50.70;26.67;;;;;;;;;;5054450;28;20838;-87
2023/04/09 03:37:04;;;;;;;47.30;26.03;;;;;;;;;;5053476;28;20424;-88
2023/04/09 03:39:30;;;;;;;53.97;27.40;;;;;;;;;;5053664;28;20414;-81
2023/04/09 03:42:00;;;;;;;48.80;26.33;;;;;;;;;;5054188;28;20879;-89
2023/04/09 03:44:31;;;;;;;47.67;27.43;;;;;;;;;;5054230;28;20490;-92
2023/04/09 03:47:00;;;;;;;51.20;28.53;;;;;;;;;;5037065;28;20420;-89
2023/04/09 03:49:26;;;;;;;50.83;28.10;;;;;;;;;;5054492;28;20411;-88
2023/04/09 03:51:52;;;;;;;51.47;29.30;;;;;;;;;;5039454;28;20413;-87
2023/04/09 03:54:18;;;;;;;45.03;25.27;;;;;;;;;;5042669;28;20419;-88
2023/04/09 03:56:44;;;;;;;51.47;26.57;;;;;;;;;;5021773;28;20767;-82
2023/04/09 03:59:15;;;;;;;46.37;27.17;;;;;;;;;;5036022;28;20413;-87
2023/04/09 04:01:42;;;;;;;43.70;28.53;;;;;;;;;;5035978;28;20559;-87
2023/04/09 04:04:28;;;;;;;51.17;25.67;;;;;;;;;;5054211;28;20514;-84
2023/04/09 04:06:55;;;;;;;44.80;26.47;;;;;;;;;;5034827;28;20481;-85
2023/04/09 04:09:23;;;;;;;43.73;26.60;;;;;;;;;;5054122;28;20458;-86
2023/04/09 04:11:57;;;;;;;52.00;27.83;;;;;;;;;;5054114;28;20783;-88
2023/04/09 04:14:30;;;;;;;51.27;26.33;;;;;;;;;;5053437;28;20806;-81
2023/04/09 04:16:56;;;;;;;43.63;26.73;;;;;;;;;;5035856;28;20427;-83
2023/04/09 04:19:22;;;;;;;54.00;29.00;;;;;;;;;;5036350;28;20422;-90
2023/04/09 04:21:51;;;;;;;48.10;27.07;;;;;;;;;;5037593;28;20836;-88
2023/04/09 04:24:17;;;;;;;56.33;28.57;;;;;;;;;;5036272;28;20212;-82
2023/04/09 04:26:49;;;;;;;45.87;25.90;;;;;;;;;;5053491;28;20451;-87
2023/04/09 04:29:15;;;;;;;49.97;28.20;;;;;;;;;;5031987;28;20987;-84
2023/04/09 04:31:49;;;;;;;52.00;28.63;;;;;;;;;;5033604;28;20773;-89
2023/04/09 04:34:15;;;;;;;47.90;27.70;;;;;;;;;;5033385;28;20915;-83
2023/04/09 04:36:41;;;;;;;49.37;28.37;;;;;;;;;;5033098;28;20444;-86
2023/04/09 04:39:07;;;;;;;54.33;29.60;;;;;;;;;;5033270;28;20518;-88
2023/04/09 04:41:33;;;;;;;49.87;29.13;;;;;;;;;;5033765;28;20537;-83
2023/04/09 04:44:13;;;;;;;54.57;28.00;;;;;;;;;;5032610;28;20428;-89
2023/04/09 04:46:38;;;;;;;53.53;28.27;;;;;;;;;;5032460;28;20796;-89
2023/04/09 04:49:24;;;;;;;55.53;27.90;;;;;;;;;;5033662;28;20402;-91
2023/04/09 04:51:54;;;;;;;53.60;28.63;;;;;;;;;;5033720;28;20417;-88
2023/04/09 04:54:23;;;;;;;52.47;28.27;;;;;;;;;;5032197;28;20451;-91
2023/04/09 04:56:49;;;;;;;51.53;27.53;;;;;;;;;;5035208;28;20429;-91
2023/04/09 04:59:15;;;;;;;52.83;28.43;;;;;;;;;;5035203;28;20404;-92
2023/04/09 05:01:41;;;;;;;46.27;26.97;;;;;;;;;;5032270;28;20584;-81
2023/04/09 05:04:10;;;;;;;45.20;25.80;;;;;;;;;;5033510;28;20911;-90
2023/04/09 05:06:36;;;;;;;51.30;28.10;;;;;;;;;;5033378;28;20780;-90
2023/04/09 05:09:02;;;;;;;51.73;27.33;;;;;;;;;;5032874;28;20419;-87
2023/04/09 05:11:29;;;;;;;57.10;27.90;;;;;;;;;;5033450;28;20428;-91
2023/04/09 05:13:58;;;;;;;44.77;27.40;;;;;;;;;;5033078;28;20415;-82
2023/04/09 05:16:24;;;;;;;48.60;24.47;;;;;;;;;;5031483;28;20903;-82
2023/04/09 05:18:50;;;;;;;53.60;27.37;;;;;;;;;;5032080;28;20605;-84
2023/04/09 05:21:16;;;;;;;52.97;27.47;;;;;;;;;;5035127;28;20531;-90
2023/04/09 05:23:42;;;;;;;49.35;27.17;;;;;;;;;;5037883;28;20418;-83
2023/04/09 05:26:08;;;;;;;49.47;26.50;;;;;;;;;;5031387;28;20598;-88
2023/04/09 05:28:34;;;;;;;45.47;25.20;;;;;;;;;;5041075;28;20457;-82
2023/04/09 05:31:00;;;;;;;51.57;25.37;;;;;;;;;;5034627;28;20452;-85
2023/04/09 05:33:26;;;;;;;39.80;23.60;;;;;;;;;;5034696;28;20418;-84
2023/04/09 05:35:52;;;;;;;48.30;23.33;;;;;;;;;;5052668;28;20510;-81
2023/04/09 05:38:18;;;;;;;41.30;25.50;;;;;;;;;;5034673;28;21169;-84
2023/04/09 05:40:44;;;;;;;40.83;24.90;;;;;;;;;;5035488;28;20857;-90
2023/04/09 05:43:11;;;;;;;41.83;23.60;;;;;;;;;;5053699;28;20411;-90
2023/04/09 05:45:44;;;;;;;44.00;24.93;;;;;;;;;;5052653;28;20914;-86
2023/04/09 05:48:18;;;;;;;44.67;25.00;;;;;;;;;;5052525;28;20441;-88
2023/04/09 05:50:51;;;;;;;41.40;24.10;;;;;;;;;;5056175;28;20887;-81
2023/04/09 05:53:17;;;;;;;39.50;25.10;;;;;;;;;;5038800;28;20412;-87
2023/04/09 05:55:45;;;;;;;39.80;23.40;;;;;;;;;;5056017;28;20775;-82
2023/04/09 05:58:12;;;;;;;38.70;22.27;;;;;;;;;;5017110;28;20459;-83
2023/04/09 06:00:39;;;;;;;45.57;24.67;;;;;;;;;;5056094;28;20533;-88
2023/04/09 06:03:05;;;;;;;37.67;22.80;;;;;;;;;;5056099;28;20519;-86
2023/04/09 06:05:34;;;;;;;34.77;23.77;;;;;;;;;;5055734;28;20543;-84
2023/04/09 06:08:02;;;;;;;39.73;23.30;;;;;;;;;;5055763;28;20414;-91
2023/04/09 06:10:28;;;;;;;42.63;22.90;;;;;;;;;;5038780;28;20419;-84
2023/04/09 06:12:54;;;;;;;39.03;22.10;;;;;;;;;;5056314;28;20421;-84
2023/04/09 06:15:20;;;;;;;39.33;20.90;;;;;;;;;;5055606;28;20771;-81
2023/04/09 06:17:46;;;;;;;38.23;23.00;;;;;;;;;;5055606;28;20418;-88
2023/04/09 06:20:15;;;;;;;42.80;23.57;;;;;;;;;;5054379;28;20455;-82
2023/04/09 06:22:44;;;;;;;38.47;22.63;;;;;;;;;;5055806;28;20178;-88
2023/04/09 06:25:10;;;;;;;37.13;23.27;;;;;;;;;;5055194;28;20415;-89
2023/04/09 06:27:36;;;;;;;36.87;21.93;;;;;;;;;;5055805;28;20827;-88
2023/04/09 06:30:02;;;;;;;37.60;23.87;;;;;;;;;;5055996;28;20501;-82
2023/04/09 06:32:28;;;;;;;34.87;23.00;;;;;;;;;;5055555;28;20173;-88
2023/04/09 06:34:54;;;;;;;43.53;24.23;;;;;;;;;;5070475;28;20423;-88
2023/04/09 06:37:21;;;;;;;50.37;26.60;;;;;;;;;;5055097;28;20430;-87
2023/04/09 06:39:47;;;;;;;55.30;30.40;;;;;;;;;;5055063;28;20768;-87
2023/04/09 06:42:12;;;;;;;56.73;32.47;;;;;;;;;;5070943;28;20472;-78
2023/04/09 06:44:38;;;;;;;57.63;30.93;;;;;;;;;;5055367;28;20173;-90
2023/04/09 06:47:06;;;;;;;54.07;32.07;;;;;;;;;;5071322;28;20412;-90
2023/04/09 06:49:32;;;;;;;59.43;33.43;;;;;;;;;;5055612;28;20624;-82
2023/04/09 06:51:58;;;;;;;56.30;31.50;;;;;;;;;;5064900;28;20415;-84
2023/04/09 06:54:24;;;;;;;58.27;32.03;;;;;;;;;;5070654;28;20506;-81
2023/04/09 06:56:50;;;;;;;46.13;29.70;;;;;;;;;;5071028;28;20473;-88
2023/04/09 06:59:23;;;;;;;50.67;30.07;;;;;;;;;;5055484;28;20778;-92
2023/04/09 07:01:49;;;;;;;58.30;33.63;;;;;;;;;;5055248;28;20478;-81
2023/04/09 07:04:15;;;;;;;57.90;32.33;;;;;;;;;;5070767;28;20772;-93
2023/04/09 07:06:41;;;;;;;58.83;31.80;;;;;;;;;;5037844;28;20440;-81
2023/04/09 07:09:07;;;;;;;55.90;30.57;;;;;;;;;;5070609;28;20416;-84
2023/04/09 07:11:33;;;;;;;52.57;29.23;;;;;;;;;;5021882;28;20636;-82
2023/04/09 07:14:02;;;;;;;42.93;25.17;;;;;;;;;;5053615;28;20459;-88
2023/04/09 07:16:28;;;;;;;42.93;26.40;;;;;;;;;;5049649;28;20182;-87
2023/04/09 07:18:53;;;;;;;51.43;28.70;;;;;;;;;;5033623;28;20479;-79
2023/04/09 07:21:19;;;;;;;48.53;28.27;;;;;;;;;;5033614;28;20666;-79
2023/04/09 07:23:46;;;;;;;49.33;29.13;;;;;;;;;;5032942;28;20421;-84
2023/04/09 07:26:12;;;;;;;45.37;27.00;;;;;;;;;;5034750;28;20405;-79
2023/04/09 07:28:38;;;;;;;49.30;29.53;;;;;;;;;;5034463;28;20546;-79
2023/04/09 07:31:04;;;;;;;36.77;24.53;;;;;;;;;;5035202;28;20468;-90
2023/04/09 07:33:30;;;;;;;38.20;24.83;;;;;;;;;;5034473;28;20527;-79
2023/04/09 07:35:56;;;;;;;39.17;24.83;;;;;;;;;;5034246;28;20419;-88
2023/04/09 07:38:22;;;;;;;37.10;23.37;;;;;;;;;;5034037;28;20420;-80
2023/04/09 07:40:48;;;;;;;32.83;22.17;;;;;;;;;;5033729;28;20803;-82
2023/04/09 07:43:15;;;;;;;31.63;21.97;;;;;;;;;;5034575;28;20271;-88
2023/04/09 07:45:41;;;;;;;37.93;22.53;;;;;;;;;;5034878;28;20921;-90
2023/04/09 07:48:10;;;;;;;32.37;20.60;;;;;;;;;;5034180;28;20411;-86
2023/04/09 07:50:36;;;;;;;32.63;20.97;;;;;;;;;;5034243;28;20417;-90
2023/04/09 07:53:02;;;;;;;32.73;22.23;;;;;;;;;;5034099;28;20410;-79
2023/04/09 07:55:28;;;;;;;37.90;26.10;;;;;;;;;;5033940;28;20829;-89
2023/04/09 07:57:54;;;;;;;35.90;23.03;;;;;;;;;;5037969;28;20419;-88
2023/04/09 08:00:20;;;;;;;29.70;18.90;;;;;;;;;;5053598;28;20190;-78
2023/04/09 08:02:46;;;;;;;27.80;17.03;;;;;;;;;;5053892;28;20896;-79
2023/04/09 08:05:18;;;;;;;28.20;18.30;;;;;;;;;;5053733;28;20402;-85
2023/04/09 08:07:44;;;;;;;20.63;13.30;;;;;;;;;;5053535;28;20911;-88
2023/04/09 08:10:13;;;;;;;19.10;13.70;;;;;;;;;;5052204;28;20906;-87
2023/04/09 08:12:39;;;;;;;22.67;14.47;;;;;;;;;;5011636;28;20422;-76
2023/04/09 08:15:06;;;;;;;23.03;13.93;;;;;;;;;;5053788;28;20411;-85
2023/04/09 08:17:32;;;;;;;19.60;13.60;;;;;;;;;;5052055;28;20475;-85
2023/04/09 08:19:57;;;;;;;24.60;15.53;;;;;;;;;;5054080;28;20816;-79
2023/04/09 08:22:23;;;;;;;15.03;9.90;;;;;;;;;;5053171;28;20467;-85
2023/04/09 08:24:52;;;;;;;12.93;9.00;;;;;;;;;;5035138;28;20182;-82
2023/04/09 08:27:19;;;;;;;15.30;9.37;;;;;;;;;;5035438;28;20452;-87
2023/04/09 08:29:44;;;;;;;14.60;9.77;;;;;;;;;;5052938;28;20456;-82
2023/04/09 08:32:11;;;;;;;12.90;10.17;;;;;;;;;;5053021;28;20408;-80
2023/04/09 08:34:40;;;;;;;14.63;11.97;;;;;;;;;;5075399;22;20708;-86
2023/04/09 08:37:06;;;;;;;17.30;12.13;;;;;;;;;;4997627;28;20425;-86
2023/04/09 08:39:32;;;;;;;18.80;12.27;;;;;;;;;;5026081;28;20445;-80
2023/04/09 08:42:00;;;;;;;18.33;12.67;;;;;;;;;;5032898;28;20478;-79
2023/04/09 08:44:27;;;;;;;18.07;10.63;;;;;;;;;;5032608;28;20423;-78
2023/04/09 08:46:53;;;;;;;23.63;14.10;;;;;;;;;;5015087;28;20500;-79
2023/04/09 08:49:19;;;;;;;22.00;15.80;;;;;;;;;;5015154;28;20770;-78
2023/04/09 08:51:46;;;;;;;21.97;15.70;;;;;;;;;;5015139;28;20427;-79
2023/04/09 08:54:14;;;;;;;28.57;16.87;;;;;;;;;;5014673;28;20870;-78
2023/04/09 08:56:40;;;;;;;20.50;12.57;;;;;;;;;;5015078;28;20422;-78
2023/04/09 08:59:06;;;;;;;23.87;14.20;;;;;;;;;;5015058;28;20438;-78
2023/04/09 09:01:32;;;;;;;22.33;14.53;;;;;;;;;;5015013;28;20473;-78
2023/04/09 09:04:02;;;;;;;26.13;14.30;;;;;;;;;;5015900;28;20427;-92
2023/04/09 09:06:32;;;;;;;20.67;13.30;;;;;;;;;;5017600;28;20424;-81
2023/04/09 09:09:03;;;;;;;24.50;15.70;;;;;;;;;;5033330;28;20463;-88
2023/04/09 09:11:31;;;;;;;23.57;14.90;;;;;;;;;;5033228;28;20411;-77
2023/04/09 09:13:58;;;;;;;21.50;14.33;;;;;;;;;;5015970;28;20517;-77
2023/04/09 09:16:24;;;;;;;22.23;14.60;;;;;;;;;;5015730;28;20419;-85
2023/04/09 09:18:51;;;;;;;23.43;15.63;;;;;;;;;;5033956;28;20533;-91
2023/04/09 09:21:18;;;;;;;24.93;15.90;;;;;;;;;;5033331;28;20994;-81
2023/04/09 09:23:44;;;;;;;21.60;14.27;;;;;;;;;;5033388;28;20413;-77
2023/04/09 09:26:31;;;;;;;22.40;14.20;;;;;;;;;;4997450;28;20589;-83
2023/04/09 09:28:57;;;;;;;21.00;13.03;;;;;;;;;;5036575;28;20394;-83
2023/04/09 09:31:24;;;;;;;20.20;13.00;;;;;;;;;;5039109;28;20418;-85
2023/04/09 09:33:50;;;;;;;22.60;14.63;;;;;;;;;;5036159;28;20524;-79
2023/04/09 09:36:38;;;;;;;25.03;14.40;;;;;;;;;;5036384;28;20411;-87
2023/04/09 09:39:08;;;;;;;21.50;14.73;;;;;;;;;;5004688;28;20506;-87
2023/04/09 09:41:34;;;;;;;22.17;15.20;;;;;;;;;;5018556;28;21001;-86
2023/04/09 09:44:02;;;;;;;23.23;14.07;;;;;;;;;;5016385;28;20435;-85
2023/04/09 09:46:30;;;;;;;22.70;14.67;;;;;;;;;;5015975;28;20480;-87
2023/04/09 09:48:56;;;;;;;21.53;12.83;;;;;;;;;;5015303;28;20416;-88
2023/04/09 09:51:26;;;;;;;19.93;13.30;;;;;;;;;;5016215;28;20483;-87
2023/04/09 09:53:54;;;;;;;22.60;13.90;;;;;;;;;;5016237;28;20435;-79
2023/04/09 09:56:49;;;;;;;19.10;14.00;;;;;;;;;;4998450;28;20470;-86
2023/04/09 09:59:22;;;;;;;23.60;14.77;;;;;;;;;;4986074;28;20510;-84
2023/04/09 10:01:51;;;;;;;19.20;12.83;;;;;;;;;;5015870;28;20563;-85
2023/04/09 10:04:19;;;;;;;21.07;12.10;;;;;;;;;;5005171;28;20444;-88
2023/04/09 10:06:47;;;;;;;17.83;13.70;;;;;;;;;;5029402;28;21030;-85
2023/04/09 10:09:13;;;;;;;18.17;11.53;;;;;;;;;;5032949;28;20440;-84
2023/04/09 10:11:42;;;;;;;21.47;13.60;;;;;;;;;;5004883;28;20441;-85
2023/04/09 10:14:09;;;;;;;16.70;11.47;;;;;;;;;;5022902;28;20415;-87
2023/04/09 10:16:35;;;;;;;21.70;14.57;;;;;;;;;;5018224;28;20437;-90
2023/04/09 10:19:03;;;;;;;21.83;13.70;;;;;;;;;;5023758;28;20942;-88
2023/04/09 10:21:29;;;;;;;18.50;12.30;;;;;;;;;;5018121;28;20474;-86
2023/04/09 10:24:09;;;;;;;18.57;13.80;;;;;;;;;;5035208;28;20765;-81
2023/04/09 10:26:39;;;;;;;20.67;13.10;;;;;;;;;;5025489;28;21015;-85
2023/04/09 10:29:07;;;;;;;19.87;13.63;;;;;;;;;;5035600;28;20408;-87
2023/04/09 10:31:51;;;;;;;18.83;13.10;;;;;;;;;;5035610;28;20417;-88
2023/04/09 10:34:25;;;;;;;21.93;14.07;;;;;;;;;;5027851;28;20470;-86
2023/04/09 10:36:55;;;;;;;21.60;15.33;;;;;;;;;;4998148;28;20898;-84
2023/04/09 10:39:21;;;;;;;21.87;14.00;;;;;;;;;;4997967;28;20418;-84
2023/04/09 10:41:52;;;;;;;24.00;17.37;;;;;;;;;;4997868;28;20483;-89
2023/04/09 10:44:21;;;;;;;18.83;12.70;;;;;;;;;;4998341;28;20422;-80
2023/04/09 10:46:52;;;;;;;19.77;14.73;;;;;;;;;;5019237;28;20938;-86
2023/04/09 10:49:19;;;;;;;20.33;13.60;;;;;;;;;;5017944;28;20508;-84
2023/04/09 10:51:53;;;;;;;19.13;13.73;;;;;;;;;;5017805;28;20842;-91
2023/04/09 10:54:34;;;;;;;17.77;13.37;;;;;;;;;;4994057;28;20492;-81
2023/04/09 10:57:07;;;;;;;17.77;13.07;;;;;;;;;;5035016;28;20470;-87
2023/04/09 10:59:37;;;;;;;19.33;14.63;;;;;;;;;;5035340;28;20522;-86
2023/04/09 11:02:06;;;;;;;19.27;14.20;;;;;;;;;;5017016;28;20484;-79
2023/04/09 11:04:35;;;;;;;19.97;15.83;;;;;;;;;;5028262;28;20436;-90
2023/04/09 11:07:03;;;;;;;16.77;13.30;;;;;;;;;;5039978;28;20440;-93
2023/04/09 11:09:29;;;;;;;18.10;14.30;;;;;;;;;;5022194;28;20427;-93
2023/04/09 11:11:56;;;;;;;16.77;14.37;;;;;;;;;;5027982;28;20422;-95
2023/04/09 11:14:24;;;;;;;16.03;13.53;;;;;;;;;;5021302;28;20180;-88
2023/04/09 11:16:50;;;;;;;21.17;15.67;;;;;;;;;;5027971;28;20423;-92
2023/04/09 11:19:16;;;;;;;17.80;13.30;;;;;;;;;;5037722;28;20431;-95
2023/04/09 11:21:45;;;;;;;19.83;14.43;;;;;;;;;;5042824;28;20209;-88
2023/04/09 11:24:17;;;;;;;17.20;13.43;;;;;;;;;;5038201;28;20234;-84
2023/04/09 11:26:44;;;;;;;17.57;13.37;;;;;;;;;;5017791;28;20876;-92
2023/04/09 11:29:11;;;;;;;18.20;15.20;;;;;;;;;;5018645;28;20849;-88
2023/04/09 11:31:37;;;;;;;17.90;14.17;;;;;;;;;;5039412;28;20421;-90
2023/04/09 11:34:03;;;;;;;17.83;14.10;;;;;;;;;;5041393;28;20479;-84
2023/04/09 11:36:29;;;;;;;17.97;14.83;;;;;;;;;;5045277;28;20172;-80
2023/04/09 11:38:56;;;;;;;23.80;16.30;;;;;;;;;;5042512;28;20180;-89
2023/04/09 11:41:37;;;;;;;18.53;14.20;;;;;;;;;;5037607;28;20462;-90
2023/04/09 11:44:05;;;;;;;16.40;14.63;;;;;;;;;;5017785;28;20440;-87
2023/04/09 11:46:35;;;;;;;18.83;13.90;;;;;;;;;;5017829;28;20470;-80
2023/04/09 11:49:01;;;;;;;17.93;14.33;;;;;;;;;;5038660;28;20919;-86
2023/04/09 11:51:29;;;;;;;19.30;15.80;;;;;;;;;;5020705;28;20432;-87
2023/04/09 11:54:06;;;;;;;17.83;14.23;;;;;;;;;;5038772;28;20401;-86
2023/04/09 11:56:35;;;;;;;16.13;13.80;;;;;;;;;;5036178;28;20672;-80
2023/04/09 11:59:01;;;;;;;19.27;14.00;;;;;;;;;;5036733;28;20410;-89
2023/04/09 12:01:31;;;;;;;21.93;18.97;;;;;;;;;;5034512;28;20475;-83
2023/04/09 12:03:57;;;;;;;16.87;13.13;;;;;;;;;;5039636;28;20397;-79
2023/04/09 12:06:23;;;;;;;15.63;13.77;;;;;;;;;;5040182;28;20417;-88
2023/04/09 12:08:58;;;;;;;22.33;19.80;;;;;;;;;;5040251;28;20405;-86
2023/04/09 12:11:31;;;;;;;14.30;12.80;;;;;;;;;;5039631;28;20424;-90
2023/04/09 12:20:11;;;;;;;13.37;11.97;;;;;;;;;;4958426;29;20388;-91
2023/04/09 12:25:41;;;;;;;13.67;12.20;;;;;;;;;;4965367;29;20465;-95
2023/04/09 12:28:08;;;;;;;17.47;13.50;;;;;;;;;;5013087;28;20413;-96
2023/04/09 12:30:34;;;;;;;18.53;13.23;;;;;;;;;;5044192;22;20508;-95
2023/04/09 12:33:01;;;;;;;13.70;12.30;;;;;;;;;;5044080;22;21002;-81
2023/04/09 12:35:28;;;;;;;15.00;13.43;;;;;;;;;;5045007;28;20420;-82
2023/04/09 12:37:54;;;;;;;16.40;13.80;;;;;;;;;;5048002;28;20412;-85
2023/04/09 12:40:20;;;;;;;15.43;13.03;;;;;;;;;;5055759;28;20420;-95
2023/04/09 12:42:46;;;;;;;16.00;14.27;;;;;;;;;;5052662;28;20416;-94
2023/04/09 12:45:13;;;;;;;13.70;11.90;;;;;;;;;;5010741;28;20490;-94
2023/04/09 12:47:40;;;;;;;15.77;14.17;;;;;;;;;;5056511;28;20450;-82
2023/04/09 12:50:06;;;;;;;16.10;13.70;;;;;;;;;;5070482;28;20511;-81
2023/04/09 12:52:33;;;;;;;14.20;12.70;;;;;;;;;;5054187;28;20401;-81
2023/04/09 12:54:59;;;;;;;14.20;12.70;;;;;;;;;;5069562;28;20420;-85
2023/04/09 12:57:25;;;;;;;17.47;14.03;;;;;;;;;;5058530;28;20412;-82
2023/04/09 12:59:51;;;;;;;14.63;12.63;;;;;;;;;;5074045;28;20200;-80
2023/04/09 13:02:17;;;;;;;14.47;12.87;;;;;;;;;;5057464;28;20958;-81
2023/04/09 13:04:43;;;;;;;13.97;12.23;;;;;;;;;;5057851;28;20180;-83
2023/04/09 13:07:10;;;;;;;13.87;12.43;;;;;;;;;;5057220;28;20887;-81
2023/04/09 13:09:36;;;;;;;15.00;12.70;;;;;;;;;;5056952;28;20807;-80
2023/04/09 13:12:02;;;;;;;15.03;12.00;;;;;;;;;;5057136;28;20466;-80
2023/04/09 13:14:28;;;;;;;13.10;11.80;;;;;;;;;;5072825;28;20423;-80
2023/04/09 13:16:54;;;;;;;12.90;11.60;;;;;;;;;;5057228;28;20207;-80
2023/04/09 13:19:20;;;;;;;14.70;13.23;;;;;;;;;;5057877;28;20177;-81
2023/04/09 13:21:46;;;;;;;14.93;12.20;;;;;;;;;;5059854;28;20216;-92
2023/04/09 13:24:12;;;;;;;16.53;13.73;;;;;;;;;;5057725;28;20424;-94
2023/04/09 13:26:38;;;;;;;14.80;13.30;;;;;;;;;;5040066;28;20178;-84
2023/04/09 13:29:04;;;;;;;16.20;13.53;;;;;;;;;;5065213;28;20177;-80
2023/04/09 13:31:30;;;;;;;14.93;12.67;;;;;;;;;;5065904;28;20180;-84
2023/04/09 13:33:56;;;;;;;15.57;13.87;;;;;;;;;;5052759;28;20236;-90
2023/04/09 13:36:22;;;;;;;19.40;14.60;;;;;;;;;;5057817;28;20822;-85
2023/04/09 13:38:50;;;;;;;14.97;13.43;;;;;;;;;;5065534;28;20418;-92
2023/04/09 13:41:16;;;;;;;21.33;13.60;;;;;;;;;;5062418;28;20207;-79
2023/04/09 13:43:43;;;;;;;17.13;13.27;;;;;;;;;;5062341;28;20414;-92
2023/04/09 13:46:09;;;;;;;15.43;13.63;;;;;;;;;;5058171;28;20207;-94
2023/04/09 13:48:35;;;;;;;19.70;14.40;;;;;;;;;;5015253;28;20443;-92
2023/04/09 13:51:01;;;;;;;16.33;11.80;;;;;;;;;;5057216;28;20536;-83
2023/04/09 13:53:27;;;;;;;16.00;12.20;;;;;;;;;;5057191;28;20752;-81
2023/04/09 13:55:53;;;;;;;20.70;12.20;;;;;;;;;;5059338;28;20176;-93
2023/04/09 13:58:21;;;;;;;16.70;13.27;;;;;;;;;;5061081;28;20170;-83
2023/04/09 14:00:47;;;;;;;15.37;13.03;;;;;;;;;;5053781;28;20496;-81
2023/04/09 14:03:13;;;;;;;16.60;13.30;;;;;;;;;;5039776;28;20461;-94
2023/04/09 14:05:39;;;;;;;18.17;11.50;;;;;;;;;;5049158;28;20416;-79
2023/04/09 14:08:05;;;;;;;16.97;12.97;;;;;;;;;;5061903;28;20472;-87
2023/04/09 14:10:31;;;;;;;16.30;11.90;;;;;;;;;;5040421;28;20409;-79
2023/04/09 14:12:57;;;;;;;17.43;11.57;;;;;;;;;;5039386;28;20435;-88
2023/04/09 14:15:23;;;;;;;14.50;10.23;;;;;;;;;;5045491;28;20409;-78
2023/04/09 14:17:49;;;;;;;16.43;11.73;;;;;;;;;;5039930;28;20831;-85
2023/04/09 14:20:15;;;;;;;17.37;12.87;;;;;;;;;;5042028;28;20414;-84
2023/04/09 14:22:41;;;;;;;20.67;13.40;;;;;;;;;;5059077;28;20510;-87
2023/04/09 14:25:08;;;;;;;17.53;12.93;;;;;;;;;;5057540;28;20407;-80
2023/04/09 14:27:33;;;;;;;15.40;13.57;;;;;;;;;;5056028;28;20413;-81
2023/04/09 14:29:59;;;;;;;17.30;12.10;;;;;;;;;;5058001;28;20866;-88
2023/04/09 14:32:25;;;;;;;16.87;12.83;;;;;;;;;;5058066;28;20255;-81